Grand Marais, Minnesota
Current Conditions -  °F | °C
As of 3:14 AM on Thursday 27 Nov 2014 (Local Time) from KCKC Reporting Station
Scattered Clouds Scattered Clouds  
Wind Chill: -23°   Ceiling: Unl
Heat Index: -11°   Visibility: 10mi
Dew Point: -18°   Wind: 5mph
Humidity: 70%   Direction: 340°NNW
Pressure: 30.28"   Gusts: NA
Location:  47.75°N, 90.33°W
Report Text: KCKC 270914Z AUTO 34004KT 10SM SCT095 M24/M28 A3028 RMK AO2
Loading
Personal Weather Stations






























Interactive Weather Map New forecast layout! Learn more

10-Day Weather Forecast

Advertisements
Track Severe Weather on mobile